createdAt,value
2023-05-05T00:02:41.543Z,8.09
2023-05-05T00:06:25.028Z,8.01
2023-05-05T00:10:09.357Z,7.93
2023-05-05T00:13:34.375Z,7.69
2023-05-05T00:17:12.312Z,7.47
2023-05-05T00:21:08.802Z,7.22
2023-05-05T00:24:33.392Z,7.04
2023-05-05T00:28:29.952Z,6.92
2023-05-05T00:32:14.228Z,6.76
2023-05-05T00:35:39.244Z,6.58
2023-05-05T00:39:16.751Z,6.44
2023-05-05T00:42:54.687Z,6.36
2023-05-05T00:46:33.938Z,6.24
2023-05-05T00:50:10.907Z,6.13
2023-05-05T00:53:48.745Z,6.05
2023-05-05T00:57:26.010Z,5.96
2023-05-05T01:01:21.791Z,5.90
2023-05-05T01:05:07.222Z,5.91
2023-05-05T01:09:18.860Z,5.84
2023-05-05T01:13:10.762Z,5.82
2023-05-05T01:16:41.623Z,5.80
2023-05-05T01:20:57.481Z,5.83
2023-05-05T01:24:59.702Z,5.89
2023-05-05T01:29:00.912Z,6.03
2023-05-05T01:32:30.065Z,6.01
2023-05-05T01:36:11.919Z,5.90
2023-05-05T01:39:44.685Z,5.81
2023-05-05T01:43:23.455Z,5.71
2023-05-05T01:46:59.770Z,5.69
2023-05-05T01:50:36.806Z,5.64
2023-05-05T01:54:13.995Z,5.64
2023-05-05T01:57:52.275Z,5.61
2023-05-05T02:01:30.508Z,5.58
2023-05-05T02:05:06.905Z,5.48
2023-05-05T02:08:44.875Z,5.44
2023-05-05T02:12:44.555Z,5.36
2023-05-05T02:16:30.533Z,5.28
2023-05-05T02:19:58.978Z,5.23
2023-05-05T02:23:33.305Z,5.17
2023-05-05T02:27:12.118Z,5.12
2023-05-05T02:31:09.861Z,5.12
2023-05-05T02:34:54.712Z,5.13
2023-05-05T02:38:26.459Z,5.18
2023-05-05T02:42:21.097Z,5.23
2023-05-05T02:46:05.986Z,5.23
2023-05-05T02:49:49.746Z,5.26
2023-05-05T02:53:14.909Z,5.27
2023-05-05T02:57:17.681Z,5.24
2023-05-05T03:01:01.526Z,5.13
2023-05-05T03:04:38.393Z,5.00
2023-05-05T03:08:40.211Z,4.96
2023-05-05T03:12:29.522Z,4.94
2023-05-05T03:16:06.812Z,4.85
2023-05-05T03:19:57.671Z,4.89
2023-05-05T03:23:23.352Z,4.93
2023-05-05T03:27:20.050Z,4.92
2023-05-05T03:30:45.046Z,5.01
2023-05-05T03:34:22.596Z,5.11
2023-05-05T03:38:00.299Z,5.23
2023-05-05T03:41:38.134Z,5.33
2023-05-05T03:45:34.827Z,5.37
2023-05-05T03:49:00.599Z,5.37
2023-05-05T03:52:57.048Z,5.45
2023-05-05T03:56:40.895Z,5.50
2023-05-05T04:00:06.817Z,5.44
2023-05-05T04:03:43.138Z,5.47
2023-05-05T04:07:39.620Z,5.58
2023-05-05T04:11:23.471Z,5.71
2023-05-05T04:15:08.217Z,5.92
2023-05-05T04:18:52.209Z,6.14
2023-05-05T04:22:17.169Z,6.24
2023-05-05T04:26:13.654Z,6.33
2023-05-05T04:29:39.061Z,6.36
2023-05-05T04:33:35.181Z,6.52
2023-05-05T04:36:59.905Z,6.73
2023-05-05T04:40:56.577Z,6.91
2023-05-05T04:44:21.588Z,7.09
2023-05-05T04:47:59.356Z,7.29
2023-05-05T04:51:55.923Z,7.50
2023-05-05T04:55:20.718Z,7.68
2023-05-05T04:59:17.163Z,7.88
2023-05-05T05:02:42.323Z,8.07
2023-05-05T05:06:19.855Z,8.21
2023-05-05T05:10:16.617Z,8.38
2023-05-05T05:13:41.758Z,8.57
2023-05-05T05:17:21.147Z,8.77
2023-05-05T05:20:56.996Z,8.99
2023-05-05T05:24:53.556Z,9.16
2023-05-05T05:28:18.561Z,9.31
2023-05-05T05:31:56.470Z,9.45
2023-05-05T05:35:33.975Z,9.58
2023-05-05T05:39:30.644Z,9.74
2023-05-05T05:43:14.287Z,9.97
2023-05-05T05:46:57.879Z,10.14
2023-05-05T05:50:24.497Z,10.25
2023-05-05T05:54:19.745Z,10.31
2023-05-05T05:57:44.814Z,10.34
2023-05-05T06:01:41.500Z,10.36
2023-05-05T06:05:25.278Z,10.37
2023-05-05T06:09:09.499Z,10.40
2023-05-05T06:12:54.689Z,10.46
2023-05-05T06:16:20.302Z,10.56
2023-05-05T06:19:57.429Z,10.64
2023-05-05T06:23:54.155Z,10.78
2023-05-05T06:27:19.159Z,10.98
2023-05-05T06:31:16.790Z,11.17
2023-05-05T06:35:00.598Z,11.34
2023-05-05T06:38:44.173Z,11.51
2023-05-05T06:42:30.073Z,11.72
2023-05-05T06:46:14.932Z,11.92
2023-05-05T06:49:39.466Z,12.07
2023-05-05T06:53:17.422Z,12.23
2023-05-05T06:57:13.738Z,12.43
2023-05-05T07:00:39.410Z,12.69
2023-05-05T07:04:35.857Z,12.86
2023-05-05T07:08:19.609Z,13.03
2023-05-05T07:12:03.010Z,13.19
2023-05-05T07:15:46.608Z,13.33
2023-05-05T07:19:30.573Z,13.46
2023-05-05T07:22:57.074Z,13.56
2023-05-05T07:26:52.031Z,13.70
2023-05-05T07:30:35.344Z,13.90
2023-05-05T07:34:00.286Z,14.09
2023-05-05T07:37:57.020Z,14.22
2023-05-05T07:41:44.258Z,14.35
2023-05-05T07:45:28.653Z,14.47
2023-05-05T07:49:12.499Z,14.57
2023-05-05T07:53:02.414Z,14.62
2023-05-05T07:56:54.049Z,14.67
2023-05-05T08:00:19.649Z,14.80
2023-05-05T08:03:56.791Z,14.92
2023-05-05T08:07:36.561Z,15.01
2023-05-05T08:11:12.150Z,14.89
2023-05-05T08:14:49.711Z,14.88
2023-05-05T08:18:27.436Z,14.98
2023-05-05T08:22:05.347Z,15.02
2023-05-05T08:25:43.852Z,15.03
2023-05-05T08:29:20.804Z,15.08
2023-05-05T08:33:17.526Z,15.16
2023-05-05T08:37:01.303Z,15.29
2023-05-05T08:40:32.386Z,15.43
2023-05-05T08:44:22.643Z,15.55
2023-05-05T08:47:47.164Z,15.71
2023-05-05T08:51:45.989Z,15.84
2023-05-05T08:55:34.578Z,15.89
2023-05-05T08:59:01.566Z,16.01
2023-05-05T09:02:58.227Z,16.12
2023-05-05T09:06:42.310Z,16.17
2023-05-05T09:10:30.596Z,16.20
2023-05-05T09:14:14.275Z,16.31
2023-05-05T09:17:40.063Z,16.49
2023-05-05T09:21:24.887Z,16.57
2023-05-05T09:24:55.278Z,16.62
2023-05-05T09:28:32.459Z,16.73
2023-05-05T09:32:30.522Z,16.76
2023-05-05T09:35:56.425Z,16.59
2023-05-05T09:39:33.152Z,16.53
2023-05-05T09:43:11.073Z,16.63
2023-05-05T09:46:53.002Z,16.82
2023-05-05T09:50:30.304Z,17.00
2023-05-05T09:54:27.932Z,17.19
2023-05-05T09:58:22.922Z,17.35
2023-05-05T10:02:13.106Z,17.53
2023-05-05T10:06:00.257Z,17.56
2023-05-05T10:09:27.019Z,17.42
2023-05-05T10:13:03.021Z,17.52
2023-05-05T10:17:01.073Z,17.75
2023-05-05T10:20:48.156Z,17.91
2023-05-05T10:24:42.258Z,18.03
2023-05-05T10:28:33.318Z,17.77
2023-05-05T10:36:19.761Z,18.09
2023-05-05T10:40:05.118Z,18.37
2023-05-05T10:43:50.996Z,18.51
2023-05-05T10:47:36.606Z,18.65
2023-05-05T10:51:35.098Z,18.75
2023-05-05T10:55:36.733Z,18.81
2023-05-05T10:59:37.403Z,18.83
2023-05-05T11:03:17.898Z,18.97
2023-05-05T11:07:15.138Z,19.24
2023-05-05T11:11:02.227Z,19.60
2023-05-05T11:14:46.245Z,19.65
2023-05-05T11:18:38.485Z,19.80
2023-05-05T11:22:23.478Z,19.94
2023-05-05T11:26:08.194Z,19.80
2023-05-05T11:30:09.447Z,19.78
2023-05-05T11:33:37.774Z,19.82
2023-05-05T11:37:13.431Z,19.91
2023-05-05T11:40:51.309Z,20.07
2023-05-05T11:44:47.083Z,20.03
2023-05-05T11:48:26.344Z,19.62
2023-05-05T11:52:04.166Z,19.68
2023-05-05T11:55:49.411Z,19.95
2023-05-05T11:59:38.231Z,19.94
2023-05-05T12:03:22.065Z,19.76
2023-05-05T12:07:06.037Z,19.94
2023-05-05T12:10:30.750Z,20.20
2023-05-05T12:14:27.162Z,20.59
2023-05-05T12:18:20.413Z,20.89
2023-05-05T12:21:45.682Z,20.74
2023-05-05T12:25:23.298Z,20.92
2023-05-05T12:29:01.275Z,21.19
2023-05-05T12:33:05.873Z,21.35
2023-05-05T12:49:49.123Z,22.08
2023-05-05T12:53:45.201Z,22.32
2023-05-05T12:57:12.768Z,22.30
2023-05-05T13:01:08.117Z,22.18
2023-05-05T13:04:53.837Z,21.70
2023-05-05T13:08:18.845Z,21.48
2023-05-05T13:11:56.763Z,21.50
2023-05-05T13:15:34.108Z,21.85
2023-05-05T13:19:30.857Z,22.28
2023-05-05T13:23:14.370Z,22.52
2023-05-05T13:26:57.866Z,22.46
2023-05-05T13:30:41.792Z,21.96
2023-05-05T13:34:06.315Z,21.69
2023-05-05T13:37:45.986Z,22.07
2023-05-05T13:41:40.672Z,22.39
2023-05-05T13:45:24.241Z,22.68
2023-05-05T13:49:07.750Z,22.83
2023-05-05T13:52:33.409Z,22.08
2023-05-05T13:56:10.571Z,21.72
2023-05-05T13:59:47.639Z,21.41
2023-05-05T14:03:25.563Z,21.01
2023-05-05T14:07:22.068Z,20.62
2023-05-05T14:10:47.775Z,20.70
2023-05-05T14:14:24.533Z,20.41
2023-05-05T14:18:02.258Z,20.31
2023-05-05T14:21:39.937Z,20.87
2023-05-05T14:25:36.457Z,21.44
2023-05-05T14:29:19.879Z,21.36
2023-05-05T14:32:45.017Z,21.43
2023-05-05T14:36:41.581Z,21.65
2023-05-05T14:40:25.802Z,22.03
2023-05-05T14:43:50.613Z,22.23
2023-05-05T14:47:28.476Z,22.44
2023-05-05T14:51:26.589Z,22.74
2023-05-05T14:55:10.690Z,22.59
2023-05-05T14:58:37.300Z,22.09
2023-05-05T15:02:32.108Z,22.03
2023-05-05T15:06:16.296Z,20.93
2023-05-05T15:10:00.288Z,20.57
2023-05-05T15:13:43.419Z,20.83
2023-05-05T15:17:27.952Z,21.23
2023-05-05T15:20:52.366Z,21.10
2023-05-05T15:24:48.852Z,21.33
2023-05-05T15:28:14.148Z,21.32
2023-05-05T15:32:10.762Z,21.22
2023-05-05T15:35:54.212Z,21.35
2023-05-05T15:39:19.131Z,21.39
2023-05-05T15:42:58.143Z,21.48
2023-05-05T15:46:34.465Z,21.28
2023-05-05T15:50:11.962Z,21.33
2023-05-05T15:54:08.687Z,21.36
2023-05-05T15:57:55.143Z,21.17
2023-05-05T16:01:19.998Z,20.92
2023-05-05T16:05:00.194Z,20.92
2023-05-05T16:08:55.557Z,21.00
2023-05-05T16:12:39.405Z,20.67
2023-05-05T16:16:22.862Z,20.24
2023-05-05T16:20:06.843Z,20.05
2023-05-05T16:23:31.073Z,20.00
2023-05-05T16:27:09.031Z,19.97
2023-05-05T16:30:46.438Z,19.81
2023-05-05T16:34:43.059Z,19.87
2023-05-05T16:38:07.978Z,19.80
2023-05-05T16:42:05.660Z,19.88
2023-05-05T16:45:30.353Z,19.79
2023-05-05T16:49:08.570Z,19.35
2023-05-05T16:52:45.624Z,19.08
2023-05-05T16:56:42.365Z,18.91
2023-05-05T17:00:07.869Z,18.72
2023-05-05T17:03:44.628Z,18.67
2023-05-05T17:07:41.177Z,18.58
2023-05-05T17:11:06.083Z,18.52
2023-05-05T17:15:02.374Z,18.41
2023-05-05T17:18:48.945Z,18.33
2023-05-05T17:22:32.786Z,18.29
2023-05-05T17:25:59.388Z,18.15
2023-05-05T17:29:40.741Z,17.99
2023-05-05T17:33:31.890Z,17.76
2023-05-05T17:37:15.598Z,17.61
2023-05-05T17:40:58.930Z,17.42
2023-05-05T17:44:26.218Z,17.20
2023-05-05T17:48:22.748Z,17.08
2023-05-05T17:51:49.954Z,16.96
2023-05-05T17:55:45.284Z,16.79
2023-05-05T17:59:09.881Z,16.49
2023-05-05T18:03:06.763Z,16.28
2023-05-05T18:06:32.267Z,16.04
2023-05-05T18:10:28.599Z,15.75
2023-05-05T18:13:55.863Z,15.30
2023-05-05T18:17:31.395Z,14.79
2023-05-05T18:21:12.269Z,14.28
2023-05-05T18:24:47.151Z,13.74
2023-05-05T18:28:26.768Z,13.33
2023-05-05T18:32:02.274Z,12.95
2023-05-05T18:35:39.880Z,12.66
2023-05-05T18:39:17.810Z,12.37
2023-05-05T18:42:55.939Z,12.14
2023-05-05T18:46:51.681Z,12.02
2023-05-05T18:50:16.870Z,11.86
2023-05-05T18:53:54.636Z,11.70
2023-05-05T18:57:50.732Z,11.60
2023-05-05T19:01:16.386Z,11.47
2023-05-05T19:05:12.279Z,11.34
2023-05-05T19:08:56.708Z,11.22
2023-05-05T19:12:21.285Z,11.11
2023-05-05T19:16:17.879Z,10.89
2023-05-05T19:19:42.758Z,10.81
2023-05-05T19:23:23.355Z,10.84
2023-05-05T19:27:17.361Z,10.87
2023-05-05T19:31:01.174Z,10.95
2023-05-05T19:34:26.186Z,11.01
2023-05-05T19:38:03.453Z,11.07
2023-05-05T19:41:41.176Z,11.08
2023-05-05T19:45:37.971Z,11.14
2023-05-05T19:49:21.742Z,11.23
2023-05-05T19:52:46.756Z,11.23
2023-05-05T19:56:27.231Z,11.10
2023-05-05T20:00:02.221Z,11.05
2023-05-05T20:03:58.821Z,11.05
2023-05-05T20:07:23.901Z,11.06
2023-05-05T20:11:20.985Z,11.05
2023-05-05T20:14:46.791Z,11.17
2023-05-05T20:18:42.280Z,11.30
2023-05-05T20:22:27.186Z,11.36
2023-05-05T20:25:52.745Z,11.38
2023-05-05T20:29:48.095Z,11.40
2023-05-05T20:33:12.661Z,11.40
2023-05-05T20:36:51.207Z,11.38
2023-05-05T20:40:46.964Z,11.38
2023-05-05T20:44:30.760Z,11.36
2023-05-05T20:48:14.305Z,11.34
2023-05-05T20:51:57.959Z,11.33
2023-05-05T20:55:22.859Z,11.31
2023-05-05T20:59:00.914Z,11.29
2023-05-05T21:02:38.226Z,11.27
2023-05-05T21:06:15.839Z,11.26
2023-05-05T21:09:53.432Z,11.27
2023-05-05T21:13:32.002Z,11.25
2023-05-05T21:17:28.540Z,11.24
2023-05-05T21:20:53.298Z,11.20
2023-05-05T21:24:30.877Z,11.12
2023-05-05T21:28:08.546Z,11.06
2023-05-05T21:31:46.663Z,11.00
2023-05-05T21:35:42.702Z,10.95
2023-05-05T21:39:07.479Z,10.89
2023-05-05T21:42:45.988Z,10.82
2023-05-05T21:46:22.863Z,10.73
2023-05-05T21:50:19.404Z,10.66
2023-05-05T21:53:44.077Z,10.57
2023-05-05T21:57:40.814Z,10.50
2023-05-05T22:01:05.743Z,10.41
2023-05-05T22:04:42.862Z,10.32
2023-05-05T22:08:39.312Z,10.26
2023-05-05T22:12:04.658Z,10.19
2023-05-05T22:16:00.655Z,10.15
2023-05-05T22:19:25.132Z,10.09
2023-05-05T22:23:03.357Z,10.03
2023-05-05T22:26:59.437Z,9.96
2023-05-05T22:30:23.744Z,9.89
2023-05-05T22:34:01.550Z,9.81
2023-05-05T22:37:58.359Z,9.74
2023-05-05T22:41:23.071Z,9.66
2023-05-05T22:45:21.232Z,9.61
2023-05-05T22:49:05.634Z,9.55
2023-05-05T22:52:49.028Z,9.49
2023-05-05T22:56:32.252Z,9.43
2023-05-05T23:00:16.286Z,9.38
2023-05-05T23:03:59.477Z,9.32
2023-05-05T23:07:25.377Z,9.25
2023-05-05T23:11:20.443Z,9.19
2023-05-05T23:15:07.525Z,9.14
2023-05-05T23:18:57.004Z,9.09
2023-05-05T23:22:40.889Z,9.04
2023-05-05T23:26:25.054Z,8.98
2023-05-05T23:30:09.156Z,8.92
2023-05-05T23:33:53.866Z,8.88
2023-05-05T23:37:18.664Z,8.81
2023-05-05T23:41:14.977Z,8.78
2023-05-05T23:44:39.548Z,8.76
2023-05-05T23:48:17.285Z,8.75
2023-05-05T23:52:13.820Z,8.75
2023-05-05T23:55:58.049Z,8.73
2023-05-05T23:59:42.059Z,8.68
